Airfield :
LOGIN :

Register | Disclaimer

   EN    FR    IT 

 










Legend :    VFR   Marginal VFR   IFR   Intensive IFR   Very Intensive IFR
Visi :
Ceiling :
>= 8 km
>= 3000ft
5 to 8 km
1000 to 3000 ft
1500m to 5 km
500 to 1000 ft
800 to 1500m
200 to 500 ft
< 800m
< 200 ft
Symbols :   Thunderstorms  Fog  Heavy snow  Heavy precipitations  Wind > 20 kt
SIGMETs :     Misc.  Thunderstorms  Icing  Turbulence  Mountain Waves  Volcanic Ashes







- Airport Elevation : 5600 ft
- IATA code : SMV


LSZS - Samedan

CURRENT METAR :
  • 241150Z 21011KT 9999 BKN060 18/10 Q1027 RMK M

EXPIRED METARs :
  • 241120Z 22006KT 9999 FEW040 BKN060 17/09 Q1027 RMK L
  • 241050Z 20005KT 140V240 9999 SCT050TCU SCT085 16/10 Q1027 RMK K
  • 241020Z 22005KT 9999 SCT050TCU 16/09 Q1027 RMK J
  • 240950Z 20003KT 110V270 9999 SCT050TCU 17/11 Q1027 RMK I
  • 240920Z VRB01KT 9999 SCT040 16/13 Q1028 RMK H

TAF TAF LSZS
Valid from the 24 at 12:00 until the 24 at 21:00 UTC


241125Z 2412/2421 22005KT 9999 SCT050 TX19/2413Z
TEMPO 2412/2420 SHRA SCT050TCU
ATIS : +41 81 834 93 24
No reported NOTAMs for that airfield.



MET'MAP, your aeronautical weather chart ! - Copyright ORBIFLY December 2007 - Disclaimer

ORBIFLY MET'MAP TEAM :

Programming & Development : Alexandra Zaïnal
Concept & Development : Baudouin d'Aumeries
Co-Development & Prog : Marc-Olivier Méhu
Technical & hardware support : Manuel Goepfert

Contact : metmap@orbifly.com




SOURCES & CREDITS :

   NOAA